LHA8746 KSJC-KAUS
Flight info
| Callsign | LHA8746 |
|---|---|
| Flight time | 2h 36m |
| Altitude | 37000 |
| Route | TECKY4 JFREE DCT LOSHN DCT PMD DCT HEC/N0481F390 DCT EED DCT DRK DCT CNX/N0397F230 DCT SLIDE DCT UCOKA DCT DILLO LAIKS4 |
| Aircraft | B77W/H-SDE1E2FGIJ1RWYZ/S |
Departure
| Time | 2026-05-04 14:29 |
|---|---|
| Airport | Norman Y. Mineta San Jose International Airport (KSJC) |
Arrival
| Time | 2026-05-04 17:06 |
|---|---|
| Airport | Austin Bergstrom International Airport (KAUS) |
| Time | Latitude | Longitude | Altitude | Speed | Heading |
|---|---|---|---|---|---|
| 2026-05-04 13:47 | 37.36780 | -121.92861 | 78 ft | 0 kts | 49° |
| 2026-05-04 14:15 | 37.36774 | -121.92870 | 67 ft | 2 kts | 39° |
| 2026-05-04 14:16 | 37.36746 | -121.92891 | 67 ft | 2 kts | 12° |
| 2026-05-04 14:16 | 37.36730 | -121.92893 | 67 ft | 2 kts | 352° |
| 2026-05-04 14:17 | 37.36699 | -121.92879 | 67 ft | 2 kts | 325° |
| 2026-05-04 14:17 | 37.36690 | -121.92870 | 67 ft | 1 kts | 319° |
| 2026-05-04 14:17 | 37.36689 | -121.92869 | 67 ft | 0 kts | 319° |
| 2026-05-04 14:21 | 37.36701 | -121.92883 | 67 ft | 6 kts | 319° |
| 2026-05-04 14:21 | 37.36736 | -121.92922 | 67 ft | 7 kts | 319° |
| 2026-05-04 14:21 | 37.36774 | -121.92962 | 69 ft | 7 kts | 319° |
| 2026-05-04 14:21 | 37.36812 | -121.93004 | 67 ft | 7 kts | 319° |
| 2026-05-04 14:22 | 37.36852 | -121.93048 | 68 ft | 8 kts | 319° |
| 2026-05-04 14:22 | 37.36894 | -121.93094 | 69 ft | 8 kts | 319° |
| 2026-05-04 14:22 | 37.36937 | -121.93140 | 70 ft | 8 kts | 319° |
| 2026-05-04 14:22 | 37.36987 | -121.93195 | 69 ft | 11 kts | 319° |
| 2026-05-04 14:23 | 37.37144 | -121.93367 | 71 ft | 18 kts | 319° |
| 2026-05-04 14:23 | 37.37235 | -121.93466 | 68 ft | 15 kts | 319° |
| 2026-05-04 14:23 | 37.37300 | -121.93537 | 69 ft | 9 kts | 318° |
| 2026-05-04 14:24 | 37.37303 | -121.93589 | 68 ft | 6 kts | 237° |
| 2026-05-04 14:24 | 37.37301 | -121.93637 | 72 ft | 6 kts | 305° |
| 2026-05-04 14:24 | 37.37335 | -121.93673 | 69 ft | 7 kts | 318° |
| 2026-05-04 14:24 | 37.37371 | -121.93713 | 78 ft | 7 kts | 319° |
| 2026-05-04 14:25 | 37.37409 | -121.93754 | 67 ft | 8 kts | 319° |
| 2026-05-04 14:25 | 37.37495 | -121.93848 | 67 ft | 9 kts | 319° |
| 2026-05-04 14:25 | 37.37522 | -121.93887 | 67 ft | 0 kts | 297° |
| 2026-05-04 14:26 | 37.37527 | -121.93932 | 68 ft | 10 kts | 261° |
| 2026-05-04 14:26 | 37.37504 | -121.93978 | 73 ft | 5 kts | 224° |
| 2026-05-04 14:27 | 37.37475 | -121.93978 | 68 ft | 4 kts | 155° |
| 2026-05-04 14:27 | 37.37450 | -121.93955 | 67 ft | 5 kts | 140° |
| 2026-05-04 14:27 | 37.37442 | -121.93947 | 70 ft | 0 kts | 140° |
| 2026-05-04 14:28 | 37.37429 | -121.93933 | 73 ft | 13 kts | 140° |
| 2026-05-04 14:28 | 37.37249 | -121.93739 | 67 ft | 65 kts | 139° |
| 2026-05-04 14:29 | 37.35838 | -121.92203 | 250 ft | 179 kts | 139° |
| 2026-05-04 14:29 | 37.33874 | -121.90083 | 1616 ft | 191 kts | 136° |
| 2026-05-04 14:30 | 37.33012 | -121.88765 | 2199 ft | 202 kts | 126° |
| 2026-05-04 14:30 | 37.32111 | -121.87291 | 2595 ft | 223 kts | 129° |
| 2026-05-04 14:30 | 37.29965 | -121.84068 | 3640 ft | 255 kts | 131° |
| 2026-05-04 14:31 | 37.28808 | -121.82356 | 4506 ft | 259 kts | 131° |
| 2026-05-04 14:31 | 37.26456 | -121.78918 | 6400 ft | 259 kts | 132° |
| 2026-05-04 14:32 | 37.24563 | -121.76186 | 7632 ft | 267 kts | 132° |
| 2026-05-04 14:32 | 37.23326 | -121.74411 | 8386 ft | 272 kts | 132° |
| 2026-05-04 14:32 | 37.22058 | -121.72596 | 9150 ft | 279 kts | 131° |
| 2026-05-04 14:32 | 37.20759 | -121.70743 | 9856 ft | 286 kts | 131° |
| 2026-05-04 14:33 | 37.19413 | -121.68825 | 10583 ft | 291 kts | 131° |
| 2026-05-04 14:33 | 37.18070 | -121.66916 | 11419 ft | 293 kts | 131° |
| 2026-05-04 14:33 | 37.16738 | -121.65023 | 12328 ft | 294 kts | 131° |
| 2026-05-04 14:33 | 37.15386 | -121.63104 | 13300 ft | 296 kts | 130° |
| 2026-05-04 14:34 | 37.14009 | -121.61152 | 14224 ft | 299 kts | 130° |
| 2026-05-04 14:34 | 37.12621 | -121.59185 | 15045 ft | 303 kts | 130° |
| 2026-05-04 14:34 | 37.11211 | -121.57189 | 15862 ft | 308 kts | 130° |
| 2026-05-04 14:34 | 37.09776 | -121.55159 | 16703 ft | 313 kts | 130° |
| 2026-05-04 14:35 | 37.08323 | -121.53105 | 17555 ft | 317 kts | 130° |
| 2026-05-04 14:35 | 37.06849 | -121.51021 | 18410 ft | 323 kts | 130° |
| 2026-05-04 14:35 | 37.05354 | -121.48911 | 18930 ft | 325 kts | 130° |
| 2026-05-04 14:35 | 37.03846 | -121.46785 | 19091 ft | 328 kts | 130° |
| 2026-05-04 14:36 | 37.02330 | -121.44648 | 19669 ft | 328 kts | 130° |
| 2026-05-04 14:36 | 37.00810 | -121.42506 | 20498 ft | 330 kts | 130° |
| 2026-05-04 14:36 | 36.99290 | -121.40368 | 21447 ft | 328 kts | 130° |
| 2026-05-04 14:36 | 36.97760 | -121.38216 | 22162 ft | 335 kts | 130° |
| 2026-05-04 14:37 | 36.96197 | -121.36017 | 22860 ft | 341 kts | 130° |
| 2026-05-04 14:37 | 36.94612 | -121.33790 | 23621 ft | 345 kts | 131° |
| 2026-05-04 14:37 | 36.93007 | -121.31537 | 24270 ft | 349 kts | 132° |
| 2026-05-04 14:37 | 36.91363 | -121.29228 | 24658 ft | 361 kts | 133° |
| 2026-05-04 14:38 | 36.89674 | -121.26863 | 25225 ft | 367 kts | 134° |
| 2026-05-04 14:38 | 36.87969 | -121.24475 | 25891 ft | 370 kts | 135° |
| 2026-05-04 14:38 | 36.86248 | -121.22063 | 26482 ft | 375 kts | 135° |
| 2026-05-04 14:38 | 36.84503 | -121.19612 | 27080 ft | 380 kts | 136° |
| 2026-05-04 14:39 | 36.82759 | -121.17176 | 27683 ft | 384 kts | 137° |
| 2026-05-04 14:39 | 36.80967 | -121.14679 | 28298 ft | 389 kts | 138° |
| 2026-05-04 14:39 | 36.79151 | -121.12150 | 28873 ft | 394 kts | 139° |
| 2026-05-04 14:40 | 36.75451 | -121.06998 | 29955 ft | 404 kts | 141° |
| 2026-05-04 14:40 | 36.73566 | -121.04370 | 30455 ft | 408 kts | 141° |
| 2026-05-04 14:40 | 36.71666 | -121.01723 | 30929 ft | 412 kts | 141° |
| 2026-05-04 14:40 | 36.69747 | -120.99052 | 31388 ft | 415 kts | 141° |
| 2026-05-04 14:41 | 36.67811 | -120.96362 | 31820 ft | 419 kts | 142° |
| 2026-05-04 14:41 | 36.65848 | -120.93659 | 32225 ft | 421 kts | 144° |
| 2026-05-04 14:41 | 36.62172 | -120.89253 | 32911 ft | 422 kts | 148° |
| 2026-05-04 14:42 | 36.61067 | -120.87972 | 33105 ft | 424 kts | 148° |
| 2026-05-04 14:42 | 36.58892 | -120.85459 | 33480 ft | 428 kts | 149° |
| 2026-05-04 14:42 | 36.56702 | -120.82928 | 33831 ft | 432 kts | 148° |
| 2026-05-04 14:43 | 36.54497 | -120.80372 | 34162 ft | 435 kts | 148° |
| 2026-05-04 14:43 | 36.52278 | -120.77790 | 34426 ft | 438 kts | 148° |
| 2026-05-04 14:43 | 36.50057 | -120.75200 | 34794 ft | 439 kts | 148° |
| 2026-05-04 14:43 | 36.47828 | -120.72601 | 35153 ft | 440 kts | 147° |
| 2026-05-04 14:44 | 36.45595 | -120.69998 | 35517 ft | 441 kts | 147° |
| 2026-05-04 14:44 | 36.43354 | -120.67389 | 35845 ft | 443 kts | 147° |
| 2026-05-04 14:44 | 36.41101 | -120.64769 | 36137 ft | 445 kts | 146° |
| 2026-05-04 14:44 | 36.38837 | -120.62139 | 36414 ft | 447 kts | 146° |
| 2026-05-04 14:45 | 36.36567 | -120.59503 | 36806 ft | 445 kts | 146° |
| 2026-05-04 14:45 | 36.34369 | -120.56931 | 37644 ft | 431 kts | 145° |
| 2026-05-04 14:45 | 36.32319 | -120.54532 | 37064 ft | 439 kts | 145° |
| 2026-05-04 14:45 | 36.30362 | -120.52251 | 37044 ft | 438 kts | 146° |
| 2026-05-04 14:46 | 36.25839 | -120.47057 | 37061 ft | 450 kts | 146° |
| 2026-05-04 14:46 | 36.21205 | -120.41736 | 37061 ft | 456 kts | 146° |
| 2026-05-04 14:47 | 36.16578 | -120.36404 | 37052 ft | 464 kts | 146° |
| 2026-05-04 14:47 | 36.11795 | -120.30884 | 37058 ft | 476 kts | 142° |
| 2026-05-04 14:48 | 36.09664 | -120.27647 | 37063 ft | 495 kts | 129° |
| 2026-05-04 14:48 | 36.08018 | -120.23837 | 37061 ft | 511 kts | 120° |
| 2026-05-04 14:48 | 36.06829 | -120.19657 | 37056 ft | 521 kts | 109° |
| 2026-05-04 14:48 | 36.06134 | -120.15239 | 37064 ft | 525 kts | 105° |
| 2026-05-04 14:49 | 36.04952 | -120.06323 | 37037 ft | 527 kts | 105° |
| 2026-05-04 14:49 | 36.03758 | -119.97396 | 36980 ft | 526 kts | 105° |
| 2026-05-04 14:50 | 36.02517 | -119.88617 | 37033 ft | 523 kts | 105° |
| 2026-05-04 14:50 | 36.01231 | -119.79798 | 37024 ft | 522 kts | 105° |
| 2026-05-04 14:51 | 35.99936 | -119.71004 | 37031 ft | 521 kts | 105° |
| 2026-05-04 14:51 | 35.98633 | -119.62173 | 37031 ft | 520 kts | 105° |
| 2026-05-04 14:52 | 35.97336 | -119.53419 | 37025 ft | 519 kts | 105° |
| 2026-05-04 14:52 | 35.96036 | -119.44677 | 37006 ft | 519 kts | 106° |
| 2026-05-04 14:53 | 35.94728 | -119.35939 | 37039 ft | 519 kts | 106° |
| 2026-05-04 14:53 | 35.93401 | -119.27118 | 37051 ft | 522 kts | 106° |
| 2026-05-04 14:54 | 35.92071 | -119.18318 | 37062 ft | 524 kts | 107° |
| 2026-05-04 14:54 | 35.90800 | -119.09963 | 37067 ft | 528 kts | 107° |
| 2026-05-04 14:55 | 35.89429 | -119.00991 | 37040 ft | 531 kts | 107° |
| 2026-05-04 14:55 | 35.88055 | -118.92028 | 36989 ft | 535 kts | 108° |
| 2026-05-04 14:56 | 35.86671 | -118.83062 | 37029 ft | 539 kts | 109° |
| 2026-05-04 14:56 | 35.85257 | -118.73958 | 37023 ft | 544 kts | 109° |
| 2026-05-04 14:57 | 35.83818 | -118.64723 | 36986 ft | 548 kts | 109° |
| 2026-05-04 14:57 | 35.82374 | -118.55496 | 37001 ft | 551 kts | 109° |
| 2026-05-04 14:58 | 35.80918 | -118.46240 | 36967 ft | 551 kts | 109° |
| 2026-05-04 14:58 | 35.79699 | -118.38534 | 36943 ft | 552 kts | 110° |
| 2026-05-04 14:59 | 35.77967 | -118.27653 | 36940 ft | 553 kts | 110° |
| 2026-05-04 15:00 | 35.75740 | -118.13741 | 36919 ft | 553 kts | 110° |
| 2026-05-04 15:00 | 35.74242 | -118.04456 | 36890 ft | 555 kts | 111° |
| 2026-05-04 15:01 | 35.71969 | -117.90437 | 36911 ft | 555 kts | 111° |
| 2026-05-04 15:01 | 35.70455 | -117.81158 | 36928 ft | 554 kts | 111° |
| 2026-05-04 15:02 | 35.68922 | -117.71856 | 36939 ft | 557 kts | 111° |
| 2026-05-04 15:02 | 35.67379 | -117.62514 | 36940 ft | 560 kts | 111° |
| 2026-05-04 15:03 | 35.65815 | -117.53078 | 36926 ft | 561 kts | 111° |
| 2026-05-04 15:03 | 35.64251 | -117.43687 | 36907 ft | 563 kts | 111° |
| 2026-05-04 15:04 | 35.62674 | -117.34273 | 36899 ft | 564 kts | 112° |
| 2026-05-04 15:04 | 35.61089 | -117.24850 | 36877 ft | 564 kts | 112° |
| 2026-05-04 15:05 | 35.59492 | -117.15413 | 36886 ft | 566 kts | 112° |
| 2026-05-04 15:05 | 35.58142 | -117.07474 | 36884 ft | 566 kts | 112° |
| 2026-05-04 15:06 | 35.56528 | -116.98022 | 36893 ft | 567 kts | 112° |
| 2026-05-04 15:07 | 35.54090 | -116.83832 | 36851 ft | 567 kts | 111° |
| 2026-05-04 15:07 | 35.52450 | -116.74329 | 36899 ft | 566 kts | 112° |
| 2026-05-04 15:08 | 35.50813 | -116.64904 | 36906 ft | 565 kts | 112° |
| 2026-05-04 15:08 | 35.49166 | -116.55486 | 36860 ft | 566 kts | 111° |
| 2026-05-04 15:09 | 35.47516 | -116.46082 | 36903 ft | 565 kts | 111° |
| 2026-05-04 15:09 | 35.45847 | -116.36619 | 36894 ft | 565 kts | 111° |
| 2026-05-04 15:10 | 35.43349 | -116.22521 | 36864 ft | 564 kts | 111° |
| 2026-05-04 15:11 | 35.40845 | -116.08491 | 36904 ft | 563 kts | 112° |
| 2026-05-04 15:11 | 35.39147 | -115.99072 | 36914 ft | 564 kts | 112° |
| 2026-05-04 15:12 | 35.37454 | -115.89699 | 36919 ft | 565 kts | 111° |
| 2026-05-04 15:12 | 35.35751 | -115.80311 | 36937 ft | 566 kts | 112° |
| 2026-05-04 15:13 | 35.34026 | -115.70843 | 36929 ft | 567 kts | 112° |
| 2026-05-04 15:13 | 35.32306 | -115.61442 | 36943 ft | 566 kts | 111° |
| 2026-05-04 15:14 | 35.30580 | -115.52052 | 36937 ft | 566 kts | 111° |
| 2026-05-04 15:14 | 35.28833 | -115.42604 | 36923 ft | 566 kts | 111° |
| 2026-05-04 15:15 | 35.27095 | -115.33234 | 36918 ft | 565 kts | 111° |
| 2026-05-04 15:15 | 35.25354 | -115.23890 | 36886 ft | 563 kts | 111° |
| 2026-05-04 15:16 | 35.22717 | -115.09851 | 36852 ft | 564 kts | 111° |
| 2026-05-04 15:17 | 35.20068 | -114.95835 | 36841 ft | 569 kts | 110° |
| 2026-05-04 15:17 | 35.17372 | -114.81656 | 36855 ft | 570 kts | 111° |
| 2026-05-04 15:18 | 35.15571 | -114.72230 | 36874 ft | 571 kts | 111° |
| 2026-05-04 15:19 | 35.12852 | -114.58086 | 36872 ft | 571 kts | 111° |
| 2026-05-04 15:19 | 35.10110 | -114.43912 | 36877 ft | 570 kts | 111° |
| 2026-05-04 15:20 | 35.08278 | -114.34506 | 36808 ft | 571 kts | 111° |
| 2026-05-04 15:20 | 35.06439 | -114.25096 | 36809 ft | 570 kts | 111° |
| 2026-05-04 15:21 | 35.04582 | -114.15643 | 36804 ft | 570 kts | 111° |
| 2026-05-04 15:22 | 35.01800 | -114.01558 | 36797 ft | 571 kts | 111° |
| 2026-05-04 15:22 | 34.99000 | -113.87460 | 36784 ft | 571 kts | 111° |
| 2026-05-04 15:23 | 34.97114 | -113.78025 | 36796 ft | 569 kts | 111° |
| 2026-05-04 15:23 | 34.95237 | -113.68678 | 36789 ft | 568 kts | 111° |
| 2026-05-04 15:24 | 34.91478 | -113.50058 | 36815 ft | 567 kts | 111° |
| 2026-05-04 15:25 | 34.89573 | -113.40692 | 36809 ft | 567 kts | 111° |
| 2026-05-04 15:26 | 34.86724 | -113.26751 | 36811 ft | 567 kts | 111° |
| 2026-05-04 15:26 | 34.83855 | -113.12787 | 36811 ft | 568 kts | 111° |
| 2026-05-04 15:27 | 34.80947 | -112.98743 | 36855 ft | 571 kts | 111° |
| 2026-05-04 15:28 | 34.78017 | -112.84676 | 36864 ft | 574 kts | 111° |
| 2026-05-04 15:29 | 34.75054 | -112.70519 | 36837 ft | 574 kts | 111° |
| 2026-05-04 15:30 | 34.69913 | -112.37239 | 37061 ft | 580 kts | 95° |
| 2026-05-04 15:31 | 34.69702 | -112.22569 | 37004 ft | 580 kts | 95° |
| 2026-05-04 15:32 | 34.69380 | -112.07895 | 36857 ft | 580 kts | 95° |
| 2026-05-04 15:32 | 34.69128 | -111.98159 | 36947 ft | 577 kts | 95° |
| 2026-05-04 15:34 | 34.68467 | -111.73682 | 37019 ft | 582 kts | 95° |
| 2026-05-04 15:34 | 34.68053 | -111.58935 | 36964 ft | 585 kts | 95° |
| 2026-05-04 15:35 | 34.67620 | -111.44168 | 36910 ft | 584 kts | 95° |
| 2026-05-04 15:36 | 34.67170 | -111.29371 | 36927 ft | 582 kts | 95° |
| 2026-05-04 15:36 | 34.66860 | -111.19576 | 36922 ft | 581 kts | 95° |
| 2026-05-04 15:37 | 34.66542 | -111.09800 | 36921 ft | 580 kts | 95° |
| 2026-05-04 15:37 | 34.66218 | -111.00046 | 36922 ft | 579 kts | 95° |
| 2026-05-04 15:38 | 34.65885 | -110.90241 | 36917 ft | 578 kts | 95° |
| 2026-05-04 15:38 | 34.65547 | -110.80514 | 36913 ft | 577 kts | 95° |
| 2026-05-04 15:39 | 34.65199 | -110.70788 | 36911 ft | 578 kts | 95° |
| 2026-05-04 15:40 | 34.64662 | -110.56092 | 36922 ft | 580 kts | 95° |
| 2026-05-04 15:40 | 34.64294 | -110.46308 | 36921 ft | 582 kts | 95° |
| 2026-05-04 15:41 | 34.63916 | -110.36496 | 36903 ft | 584 kts | 95° |
| 2026-05-04 15:41 | 34.63531 | -110.26662 | 36900 ft | 585 kts | 95° |
| 2026-05-04 15:42 | 34.63132 | -110.16686 | 36893 ft | 585 kts | 95° |
| 2026-05-04 15:42 | 34.62733 | -110.06906 | 36899 ft | 585 kts | 95° |
| 2026-05-04 15:43 | 34.62323 | -109.97056 | 36891 ft | 585 kts | 95° |
| 2026-05-04 15:43 | 34.61902 | -109.87143 | 36882 ft | 585 kts | 95° |
| 2026-05-04 15:44 | 34.61476 | -109.77302 | 36893 ft | 585 kts | 95° |
| 2026-05-04 15:44 | 34.61042 | -109.67462 | 36947 ft | 585 kts | 95° |
| 2026-05-04 15:45 | 34.60602 | -109.57637 | 37022 ft | 584 kts | 95° |
| 2026-05-04 15:45 | 34.60150 | -109.47750 | 37089 ft | 584 kts | 95° |
| 2026-05-04 15:46 | 34.59693 | -109.37926 | 37118 ft | 585 kts | 95° |
| 2026-05-04 15:46 | 34.59228 | -109.28093 | 37093 ft | 585 kts | 95° |
| 2026-05-04 15:47 | 34.58755 | -109.18254 | 37035 ft | 585 kts | 95° |
| 2026-05-04 15:47 | 34.58270 | -109.08346 | 36962 ft | 586 kts | 95° |
| 2026-05-04 15:48 | 34.57781 | -108.98503 | 36900 ft | 586 kts | 95° |
| 2026-05-04 15:48 | 34.57032 | -108.83743 | 36870 ft | 585 kts | 95° |
| 2026-05-04 15:49 | 34.56519 | -108.73843 | 36873 ft | 585 kts | 95° |
| 2026-05-04 15:49 | 34.56002 | -108.64014 | 36871 ft | 585 kts | 95° |
| 2026-05-04 15:50 | 34.55479 | -108.54193 | 36864 ft | 584 kts | 95° |
| 2026-05-04 15:50 | 34.54947 | -108.44377 | 36866 ft | 584 kts | 95° |
| 2026-05-04 15:51 | 34.54407 | -108.34566 | 36866 ft | 584 kts | 94° |
| 2026-05-04 15:51 | 34.53857 | -108.24698 | 36863 ft | 583 kts | 95° |
| 2026-05-04 15:52 | 34.53303 | -108.14909 | 36863 ft | 583 kts | 95° |
| 2026-05-04 15:52 | 34.52742 | -108.05130 | 36866 ft | 582 kts | 95° |
| 2026-05-04 15:53 | 34.52172 | -107.95351 | 36871 ft | 583 kts | 95° |
| 2026-05-04 15:53 | 34.51691 | -107.87195 | 36889 ft | 583 kts | 95° |
| 2026-05-04 15:54 | 34.51102 | -107.77331 | 36882 ft | 584 kts | 95° |
| 2026-05-04 15:54 | 34.50509 | -107.67526 | 36870 ft | 584 kts | 95° |
| 2026-05-04 15:55 | 34.49909 | -107.57735 | 36885 ft | 583 kts | 95° |
| 2026-05-04 15:55 | 34.49298 | -107.47889 | 36881 ft | 583 kts | 95° |
| 2026-05-04 15:56 | 34.48683 | -107.38121 | 36867 ft | 582 kts | 95° |
| 2026-05-04 15:56 | 34.48061 | -107.28365 | 36889 ft | 582 kts | 95° |
| 2026-05-04 15:57 | 34.47431 | -107.18611 | 36885 ft | 581 kts | 95° |
| 2026-05-04 15:57 | 34.46790 | -107.08796 | 36886 ft | 582 kts | 95° |
| 2026-05-04 15:58 | 34.46143 | -106.99037 | 36883 ft | 583 kts | 95° |
| 2026-05-04 15:58 | 34.45489 | -106.89259 | 36886 ft | 584 kts | 95° |
| 2026-05-04 15:59 | 34.44822 | -106.79406 | 36899 ft | 584 kts | 95° |
| 2026-05-04 15:59 | 34.44150 | -106.69606 | 36914 ft | 585 kts | 95° |
| 2026-05-04 16:00 | 34.43469 | -106.59797 | 36916 ft | 586 kts | 95° |
| 2026-05-04 16:00 | 34.42776 | -106.49915 | 36919 ft | 586 kts | 95° |
| 2026-05-04 16:01 | 34.42078 | -106.40093 | 36928 ft | 587 kts | 95° |
| 2026-05-04 16:01 | 34.41372 | -106.30271 | 36929 ft | 586 kts | 95° |
| 2026-05-04 16:02 | 34.40656 | -106.20401 | 36898 ft | 585 kts | 95° |
| 2026-05-04 16:03 | 34.39577 | -106.05748 | 36924 ft | 583 kts | 95° |
| 2026-05-04 16:03 | 34.38849 | -105.96002 | 36935 ft | 582 kts | 95° |
| 2026-05-04 16:04 | 34.38114 | -105.86266 | 36921 ft | 582 kts | 95° |
| 2026-05-04 16:04 | 34.36937 | -105.71615 | 36916 ft | 582 kts | 99° |
| 2026-05-04 16:05 | 34.35179 | -105.62107 | 36888 ft | 579 kts | 110° |
| 2026-05-04 16:06 | 34.31086 | -105.48429 | 36879 ft | 577 kts | 112° |
| 2026-05-04 16:07 | 34.25646 | -105.30150 | 36870 ft | 576 kts | 112° |
| 2026-05-04 16:08 | 34.20271 | -105.11927 | 36858 ft | 578 kts | 112° |
| 2026-05-04 16:09 | 34.13464 | -104.89072 | 36848 ft | 579 kts | 112° |
| 2026-05-04 16:10 | 34.07982 | -104.70796 | 36825 ft | 581 kts | 112° |
| 2026-05-04 16:11 | 34.02448 | -104.52459 | 36825 ft | 582 kts | 112° |
| 2026-05-04 16:12 | 33.94092 | -104.24985 | 36812 ft | 582 kts | 112° |
| 2026-05-04 16:13 | 33.88504 | -104.06755 | 36804 ft | 581 kts | 112° |
| 2026-05-04 16:14 | 33.82873 | -103.88492 | 36819 ft | 582 kts | 112° |
| 2026-05-04 16:16 | 33.75819 | -103.65776 | 36849 ft | 581 kts | 111° |
| 2026-05-04 16:17 | 33.68722 | -103.43088 | 36866 ft | 579 kts | 111° |
| 2026-05-04 16:18 | 33.63006 | -103.24942 | 36867 ft | 578 kts | 111° |
| 2026-05-04 16:19 | 33.55892 | -103.02503 | 36863 ft | 579 kts | 112° |
| 2026-05-04 16:20 | 33.48689 | -102.79950 | 36848 ft | 579 kts | 112° |
| 2026-05-04 16:22 | 33.41444 | -102.57430 | 36916 ft | 580 kts | 112° |
| 2026-05-04 16:23 | 33.32683 | -102.30415 | 36874 ft | 581 kts | 112° |
| 2026-05-04 16:25 | 33.23644 | -102.03650 | 36881 ft | 578 kts | 122° |
| 2026-05-04 16:26 | 33.13241 | -101.89541 | 36868 ft | 561 kts | 147° |
| 2026-05-04 16:26 | 33.04287 | -101.80594 | 36882 ft | 561 kts | 146° |
| 2026-05-04 16:28 | 32.89416 | -101.65423 | 36917 ft | 564 kts | 146° |
| 2026-05-04 16:29 | 32.68534 | -101.44183 | 36862 ft | 565 kts | 146° |
| 2026-05-04 16:31 | 32.53625 | -101.29107 | 36877 ft | 564 kts | 146° |
| 2026-05-04 16:32 | 32.35692 | -101.11066 | 36871 ft | 563 kts | 146° |
| 2026-05-04 16:33 | 32.23658 | -100.99012 | 36869 ft | 563 kts | 146° |
| 2026-05-04 16:34 | 32.14706 | -100.90074 | 36822 ft | 562 kts | 146° |
| 2026-05-04 16:35 | 31.96822 | -100.72287 | 36887 ft | 561 kts | 146° |
| 2026-05-04 16:36 | 31.87837 | -100.63390 | 36874 ft | 561 kts | 146° |
| 2026-05-04 16:37 | 31.78880 | -100.54538 | 36903 ft | 561 kts | 146° |
| 2026-05-04 16:38 | 31.66988 | -100.42827 | 36919 ft | 560 kts | 146° |
| 2026-05-04 16:39 | 31.52035 | -100.28153 | 36929 ft | 559 kts | 146° |
| 2026-05-04 16:40 | 31.41105 | -100.17468 | 36945 ft | 559 kts | 146° |
| 2026-05-04 16:41 | 31.35255 | -100.11587 | 36835 ft | 547 kts | 140° |
| 2026-05-04 16:41 | 31.28478 | -100.00649 | 34700 ft | 565 kts | 117° |
| 2026-05-04 16:42 | 31.23608 | -99.88052 | 32675 ft | 566 kts | 115° |
| 2026-05-04 16:43 | 31.20380 | -99.79750 | 31780 ft | 556 kts | 116° |
| 2026-05-04 16:43 | 31.17153 | -99.71630 | 30885 ft | 546 kts | 116° |
| 2026-05-04 16:43 | 31.15552 | -99.67631 | 30455 ft | 542 kts | 116° |
| 2026-05-04 16:44 | 31.09287 | -99.52002 | 28678 ft | 521 kts | 116° |
| 2026-05-04 16:45 | 31.06249 | -99.44431 | 27828 ft | 510 kts | 116° |
| 2026-05-04 16:46 | 31.01795 | -99.33362 | 26594 ft | 496 kts | 116° |
| 2026-05-04 16:46 | 30.98905 | -99.26199 | 25785 ft | 487 kts | 116° |
| 2026-05-04 16:47 | 30.96042 | -99.19118 | 24962 ft | 479 kts | 115° |
| 2026-05-04 16:47 | 30.93216 | -99.12140 | 24144 ft | 473 kts | 116° |
| 2026-05-04 16:48 | 30.89042 | -99.01858 | 22831 ft | 463 kts | 115° |
| 2026-05-04 16:48 | 30.87669 | -98.98483 | 22431 ft | 458 kts | 116° |
| 2026-05-04 16:49 | 30.84965 | -98.91842 | 21602 ft | 450 kts | 116° |
| 2026-05-04 16:49 | 30.82306 | -98.85323 | 20828 ft | 442 kts | 116° |
| 2026-05-04 16:50 | 30.79750 | -98.78956 | 20038 ft | 423 kts | 111° |
| 2026-05-04 16:50 | 30.78828 | -98.72362 | 18988 ft | 414 kts | 94° |
| 2026-05-04 16:51 | 30.78244 | -98.65724 | 17795 ft | 406 kts | 95° |
| 2026-05-04 16:51 | 30.77927 | -98.62502 | 17228 ft | 397 kts | 95° |
| 2026-05-04 16:51 | 30.77285 | -98.56270 | 16160 ft | 380 kts | 96° |
| 2026-05-04 16:52 | 30.76665 | -98.50343 | 15168 ft | 364 kts | 96° |
| 2026-05-04 16:52 | 30.76363 | -98.47453 | 14684 ft | 357 kts | 96° |
| 2026-05-04 16:53 | 30.75549 | -98.41900 | 13811 ft | 340 kts | 112° |
| 2026-05-04 16:53 | 30.72584 | -98.34612 | 12804 ft | 336 kts | 116° |
| 2026-05-04 16:54 | 30.71585 | -98.32152 | 12457 ft | 337 kts | 116° |
| 2026-05-04 16:55 | 30.67688 | -98.22349 | 11088 ft | 331 kts | 115° |
| 2026-05-04 16:55 | 30.65777 | -98.17520 | 10447 ft | 327 kts | 115° |
| 2026-05-04 16:56 | 30.63889 | -98.12759 | 9815 ft | 317 kts | 115° |
| 2026-05-04 16:56 | 30.61202 | -98.05992 | 8672 ft | 298 kts | 115° |
| 2026-05-04 16:57 | 30.60335 | -98.03808 | 8365 ft | 298 kts | 116° |
| 2026-05-04 16:57 | 30.58610 | -97.99471 | 7715 ft | 297 kts | 116° |
| 2026-05-04 16:58 | 30.55966 | -97.92971 | 6729 ft | 293 kts | 125° |
| 2026-05-04 16:58 | 30.54729 | -97.91120 | 6410 ft | 289 kts | 136° |
| 2026-05-04 16:59 | 30.52080 | -97.87695 | 5751 ft | 278 kts | 134° |
| 2026-05-04 17:00 | 30.47298 | -97.81234 | 5021 ft | 256 kts | 134° |
| 2026-05-04 17:00 | 30.43815 | -97.76499 | 4974 ft | 251 kts | 134° |
| 2026-05-04 17:01 | 30.41336 | -97.74001 | 4607 ft | 231 kts | 154° |
| 2026-05-04 17:01 | 30.38588 | -97.72178 | 4056 ft | 225 kts | 154° |
| 2026-05-04 17:02 | 30.35946 | -97.70363 | 3434 ft | 219 kts | 153° |
| 2026-05-04 17:02 | 30.33373 | -97.68576 | 2840 ft | 209 kts | 156° |
| 2026-05-04 17:03 | 30.32054 | -97.68181 | 2585 ft | 186 kts | 183° |
| 2026-05-04 17:03 | 30.30839 | -97.68197 | 2378 ft | 165 kts | 181° |
| 2026-05-04 17:03 | 30.28737 | -97.68131 | 2027 ft | 147 kts | 182° |
| 2026-05-04 17:04 | 30.26717 | -97.68078 | 1607 ft | 137 kts | 181° |
| 2026-05-04 17:04 | 30.24866 | -97.68029 | 1282 ft | 136 kts | 180° |
| 2026-05-04 17:05 | 30.22990 | -97.67990 | 907 ft | 132 kts | 181° |
| 2026-05-04 17:05 | 30.21105 | -97.67927 | 544 ft | 133 kts | 181° |
| 2026-05-04 17:06 | 30.19788 | -97.67896 | 511 ft | 44 kts | 179° |
| 2026-05-04 17:06 | 30.19566 | -97.67886 | 507 ft | 28 kts | 173° |
| 2026-05-04 17:07 | 30.19396 | -97.67742 | 507 ft | 12 kts | 97° |
| 2026-05-04 17:07 | 30.19394 | -97.67679 | 507 ft | 12 kts | 89° |
| 2026-05-04 17:07 | 30.19396 | -97.67549 | 511 ft | 12 kts | 89° |
| 2026-05-04 17:07 | 30.19399 | -97.67452 | 510 ft | 12 kts | 88° |
| 2026-05-04 17:08 | 30.19401 | -97.67359 | 509 ft | 10 kts | 83° |
| 2026-05-04 17:08 | 30.19516 | -97.67322 | 509 ft | 9 kts | 359° |
| 2026-05-04 17:08 | 30.19582 | -97.67324 | 509 ft | 10 kts | 358° |
| 2026-05-04 17:09 | 30.19649 | -97.67326 | 509 ft | 10 kts | 359° |
| 2026-05-04 17:09 | 30.19716 | -97.67328 | 509 ft | 10 kts | 358° |
| 2026-05-04 17:09 | 30.19786 | -97.67330 | 510 ft | 8 kts | 1° |
| 2026-05-04 17:10 | 30.19823 | -97.67224 | 510 ft | 9 kts | 89° |
| 2026-05-04 17:10 | 30.19828 | -97.67003 | 512 ft | 8 kts | 71° |
| 2026-05-04 17:11 | 30.19873 | -97.66984 | 513 ft | 7 kts | 4° |
| 2026-05-04 17:11 | 30.19924 | -97.66985 | 514 ft | 8 kts | 358° |
| 2026-05-04 17:11 | 30.20035 | -97.66963 | 516 ft | 5 kts | 77° |
| 2026-05-04 17:12 | 30.20031 | -97.66917 | 516 ft | 7 kts | 99° |
| 2026-05-04 17:12 | 30.20005 | -97.66788 | 516 ft | 11 kts | 99° |
| 2026-05-04 17:13 | 30.20028 | -97.66500 | 511 ft | 9 kts | 80° |
| 2026-05-04 17:14 | 30.20145 | -97.66457 | 511 ft | 5 kts | 354° |
| 2026-05-04 17:14 | 30.20165 | -97.66459 | 511 ft | 2 kts | 354° |
| 2026-05-04 17:14 | 30.20175 | -97.66460 | 511 ft | 1 kts | 355° |
| 2026-05-04 17:15 | 30.20182 | -97.66461 | 512 ft | 0 kts | 356° |
| 2026-05-04 17:15 | 30.20183 | -97.66461 | 512 ft | 0 kts | 356° |